Bookmark and Share
Track history (hours):
 

Taranto

Last reported at 2014-Apr-19 18:33 UTC. Time now 2014-Apr-21 10:18 UTC.
Position N 53°42' W 000°23'.

Length 88 m; draft 4.5 m.

Type: Cargo ship. MMSI: 304010614.

NotesDate/timePositionNaut miles runAvg speedWind from/ knotsBaromVisibWave heightAir tempDewpointWater temp
2014-Apr-19 18:33N 53°42' W 000°23'9 9.4
2014-Apr-19 17:33N 53°38' W 000°09'1212.1
2014-Apr-19 16:33N 53°33' E 000°09'12 2.3
2014-Apr-19 11:29N 53°36' E 000°28'234 8.9
2014-Apr-18 09:09N 54°12' E 007°01'4 6.5
2014-Apr-18 08:33N 54°12' E 007°08'7 7.0
2014-Apr-18 07:33N 54°12' E 007°20'6 6.4
2014-Apr-18 06:33N 54°10' E 007°30'6 6.4
2014-Apr-18 05:33N 54°05' E 007°35'7 6.6
2014-Apr-18 04:33N 53°59' E 007°41'7 6.8
2014-Apr-18 03:31N 53°53' E 007°47'9 9.0
2014-Apr-18 02:33N 53°51' E 008°02'9 9.1
2014-Apr-18 01:33N 53°45' E 008°13'8 7.9
2014-Apr-18 00:33N 53°40' E 008°23'7 7.0
2014-Apr-17 23:33N 53°35' E 008°32'5 5.5
2014-Apr-17 22:33N 53°29' E 008°30'8 8.1
2014-Apr-17 21:33N 53°21' E 008°30'11 9.7
2014-Apr-17 20:27N 53°11' E 008°34'7 7.3
2014-Apr-17 19:33N 53°07' E 008°43'0 0.3
2014-Apr-17 18:33N 53°07' E 008°43'0 0.0
2014-Apr-17 17:33N 53°07' E 008°43'0 0.0
2014-Apr-17 16:33N 53°07' E 008°43'0 0.0
2014-Apr-17 15:30N 53°07' E 008°43'0 0.0
2014-Apr-17 14:33N 53°07' E 008°43'0 0.0
2014-Apr-17 13:33N 53°07' E 008°43'0 0.0
2014-Apr-17 12:33N 53°07' E 008°43'0 0.0
2014-Apr-17 11:33N 53°07' E 008°43'0 0.0
2014-Apr-17 10:33N 53°07' E 008°43'0 0.0
2014-Apr-17 09:33N 53°07' E 008°43'0 0.0
2014-Apr-17 08:33N 53°07' E 008°43'0 0.0
2014-Apr-17 07:33N 53°07' E 008°43'0 0.0
2014-Apr-17 06:33N 53°07' E 008°43'0 0.0
2014-Apr-17 05:33N 53°07' E 008°43'0 0.0
2014-Apr-17 04:33N 53°07' E 008°43'0 0.0
2014-Apr-17 03:33N 53°07' E 008°43'0 0.0
2014-Apr-17 02:33N 53°07' E 008°43'0 0.0
2014-Apr-17 01:33N 53°07' E 008°43'0 0.0
2014-Apr-17 00:33N 53°07' E 008°43'0 0.0
2014-Apr-16 23:33N 53°07' E 008°43'0 0.0
2014-Apr-16 22:33N 53°07' E 008°43'0 0.0
2014-Apr-16 21:33N 53°07' E 008°43'0 0.0
2014-Apr-16 20:33N 53°07' E 008°43'0 0.0
2014-Apr-16 19:33N 53°07' E 008°43'0 0.0
2014-Apr-16 18:33N 53°07' E 008°43'0 0.0
2014-Apr-16 17:33N 53°07' E 008°43'0 0.0
2014-Apr-16 16:33N 53°07' E 008°43'0 0.0
2014-Apr-16 15:33N 53°07' E 008°43'0 0.0
2014-Apr-16 14:33N 53°07' E 008°43'0 0.0
2014-Apr-16 13:33N 53°07' E 008°43'0 0.0
2014-Apr-16 12:33N 53°07' E 008°43'0 0.0
2014-Apr-16 11:33N 53°07' E 008°43'0 0.0
2014-Apr-16 10:33N 53°07' E 008°43'0 0.0
2014-Apr-16 09:33N 53°07' E 008°43'0 0.0
2014-Apr-16 08:33N 53°07' E 008°43'0 0.0
2014-Apr-16 07:33N 53°07' E 008°43'0 0.0
2014-Apr-16 06:33N 53°07' E 008°43'0 0.0
2014-Apr-16 05:33N 53°07' E 008°43'0 0.0
2014-Apr-16 04:33N 53°07' E 008°43'0 0.0
2014-Apr-16 03:33N 53°07' E 008°43'0 0.0
2014-Apr-16 02:33N 53°07' E 008°43'0 0.0
2014-Apr-16 01:33N 53°07' E 008°43'0 0.0
2014-Apr-16 00:33N 53°07' E 008°43'0 0.0
2014-Apr-15 23:33N 53°07' E 008°43'0 0.0
2014-Apr-15 22:33N 53°07' E 008°43'0 0.0
2014-Apr-15 21:33N 53°07' E 008°43'0 0.0
2014-Apr-15 20:33N 53°07' E 008°43'0 0.0
2014-Apr-15 19:33N 53°07' E 008°43'0 0.0
2014-Apr-15 18:33N 53°07' E 008°43'0 0.0
2014-Apr-15 17:33N 53°07' E 008°43'0 0.0
2014-Apr-15 16:34N 53°07' E 008°43'0 0.0
2014-Apr-15 15:33N 53°07' E 008°43'1 0.8
2014-Apr-15 14:33N 53°07' E 008°42'14 4.5
2014-Apr-15 11:30N 53°19' E 008°29'9 9.8
2014-Apr-15 10:34N 53°28' E 008°29'4 4.1
2014-Apr-15 09:34N 53°31' E 008°33'0 0.0
2014-Apr-15 08:34N 53°31' E 008°33'0 0.0
2014-Apr-15 07:34N 53°31' E 008°34'0 0.0
2014-Apr-15 06:34N 53°31' E 008°34'0 0.0
2014-Apr-15 05:33N 53°31' E 008°34'12 6.0
2014-Apr-15 03:34N 53°41' E 008°22'8 7.7
2014-Apr-15 02:32N 53°46' E 008°11'7 6.9
2014-Apr-15 01:34N 53°50' E 008°03'7 7.0
2014-Apr-15 00:33N 53°52' E 007°51'8 7.8
2014-Apr-14 23:34N 53°53' E 007°38'9 8.6
2014-Apr-14 22:34N 53°53' E 007°24'63 9.0
2014-Apr-14 15:34N 53°37' E 005°41'9 9.3
2014-Apr-14 14:33N 53°34' E 005°26'9 9.0
2014-Apr-14 13:34N 53°31' E 005°12'154 7.6
2014-Apr-13 17:09N 51°35' E 002°25'5 8.8
2014-Apr-13 16:33N 51°30' E 002°20'9 9.2
2014-Apr-13 15:33N 51°23' E 002°12'10 9.7
2014-Apr-13 14:33N 51°15' E 002°03'6310.5
2014-Apr-13 08:32N 50°31' E 000°52'1110.5
2014-Apr-13 07:32N 50°28' E 000°36'71 8.9
2014-Apr-12 23:33N 50°17' W 001°14'320 8.8
2014-Apr-11 11:13N 51°05' W 009°32'10 9.2
2014-Apr-11 10:07N 51°11' W 009°46'5 9.0
2014-Apr-11 09:32N 51°15' W 009°52'54 9.0
2014-Apr-11 03:33N 51°58' W 010°43'10 8.1
2014-Apr-11 02:20N 52°08' W 010°40'7 8.2
2014-Apr-11 01:31N 52°12' W 010°32'8 8.2
2014-Apr-11 00:33N 52°17' W 010°22'10 8.2
2014-Apr-10 23:21N 52°23' W 010°09'7 8.3
2014-Apr-10 22:33N 52°27' W 010°00'  

Dump ship's entire track history

sailing weather and tide predictions

Taranto — V2AK2 — position and weather